SAZR/RSA METAR and TAF weather

Enter ICAO airport designator
Station Type Date Time Source
SAZR METAR 2019/02/14 00:13 UTC NOAA

SAZR 140013Z 07006KT 4000 TSRA SCT035 FEW050CB OVC100 15/15 Q1016


Station Type Date Time Source
SAZR Decoded METAR 2019/02/14 00:13 UTC NOAA

Santa Rosa Aerodrome, Argentina (SAZR) 36-34S 064-16W 191M
Feb 13, 2019 - 07:13 PM EST / 2019.02.14 0013 UTC
Wind: from the ENE (070 degrees) at 7 MPH (6 KT):0
Visibility: 2 mile(s):0
Sky conditions: overcast
Weather: rain with thunder; Cumulonimbus clouds observed
Temperature: 59 F (15 C)
Dew Point: 59 F (15 C)
Relative Humidity: 100%
Pressure (altimeter): 30.00 in. Hg (1016 hPa)
ob: SAZR 140013Z 07006KT 4000 TSRA SCT035 FEW050CB OVC100 15/15 Q1016
cycle: 0

Station Type Date Time Source
SAZR TAF 2019/02/11 06:18 UTC NOAA

TAF SAZR 110500Z 1106/1206 16015KT 7000 NSC TX22/1119Z TN12/1110Z
BECMG 1110/1112 FEW015 SCT030 BKN050


Example: see airport list